Time;durP1;ratioP1;P1;durP2;ratioP2;P2;SDS_P1;SDS_P2;PMS_P1;PMS_P2;Temp;Humidity;BMP_temperature;BMP_pressure;BME280_temperature;BME280_humidity;BME280_pressure;Samples;Min_cycle;Max_cycle;Signal;HPM_P1;HPM_P2
2023/08/19 00:01:03;;;;;;;14.05;8.77;;;;;;;24.57;100.00;100291.38;8423678;28;20044;-63
2023/08/19 00:05:04;;;;;;;12.80;7.63;;;;;;;24.69;100.00;100286.75;8423108;28;20044;-63
2023/08/19 00:09:11;;;;;;;11.82;7.88;;;;;;;24.60;100.00;100288.13;8432380;27;20047;-62
2023/08/19 00:13:12;;;;;;;11.10;7.43;;;;;;;24.70;100.00;100288.47;8373202;28;20509;-62
2023/08/19 00:17:13;;;;;;;8.68;7.50;;;;;;;24.73;100.00;100291.56;8422365;28;20467;-63
2023/08/19 00:21:14;;;;;;;11.82;7.47;;;;;;;24.75;100.00;100285.81;8422132;28;20135;-63
2023/08/19 00:25:14;;;;;;;11.57;7.78;;;;;;;24.73;100.00;100287.97;8422056;28;20051;-62
2023/08/19 00:29:15;;;;;;;9.25;7.53;;;;;;;24.71;100.00;100281.84;8422011;28;20101;-63
2023/08/19 00:33:15;;;;;;;12.35;8.07;;;;;;;24.68;100.00;100285.94;8403945;28;20070;-63
2023/08/19 00:37:16;;;;;;;10.50;7.53;;;;;;;24.58;100.00;100285.59;8421950;28;20044;-62
2023/08/19 00:41:16;;;;;;;12.20;7.97;;;;;;;24.46;100.00;100283.91;8421574;28;20464;-61
2023/08/19 00:45:17;;;;;;;10.95;7.65;;;;;;;24.40;100.00;100288.44;8419733;28;20127;-61
2023/08/19 00:49:18;;;;;;;11.77;7.63;;;;;;;24.32;100.00;100282.41;8403523;28;20062;-61
2023/08/19 00:53:18;;;;;;;11.73;7.35;;;;;;;24.29;100.00;100280.13;8421128;28;20036;-61
2023/08/19 00:57:18;;;;;;;12.50;7.68;;;;;;;24.22;100.00;100274.72;8421298;28;20043;-61
2023/08/19 01:01:19;;;;;;;10.95;8.45;;;;;;;24.14;100.00;100271.41;8402882;28;20139;-61
2023/08/19 01:05:22;;;;;;;15.60;8.57;;;;;;;24.08;100.00;100272.34;8420954;28;20089;-61
2023/08/19 01:09:37;;;;;;;15.17;9.47;;;;;;;23.91;100.00;100268.53;8420895;28;20126;-61
2023/08/19 01:14:08;;;;;;;12.27;8.98;;;;;;;23.91;100.00;100271.28;8413185;28;20060;-61
2023/08/19 01:18:09;;;;;;;14.43;10.13;;;;;;;23.81;100.00;100265.44;8415121;28;20599;-61
2023/08/19 01:22:15;;;;;;;13.60;10.43;;;;;;;23.69;100.00;100267.34;8402698;28;20048;-61
2023/08/19 01:26:17;;;;;;;19.33;11.13;;;;;;;23.65;100.00;100266.94;8417365;28;20048;-61
2023/08/19 01:30:18;;;;;;;16.50;11.50;;;;;;;23.66;100.00;100267.78;8419665;28;20402;-61
2023/08/19 01:34:19;;;;;;;15.05;10.73;;;;;;;23.51;100.00;100264.59;8419952;28;20036;-61
2023/08/19 01:38:26;;;;;;;14.48;10.80;;;;;;;23.60;100.00;100260.44;8419490;28;20513;-61
2023/08/19 01:42:28;;;;;;;17.30;11.23;;;;;;;23.56;100.00;100256.44;8419938;28;20071;-61
2023/08/19 01:46:29;;;;;;;18.80;11.60;;;;;;;23.57;100.00;100258.13;8419243;28;20576;-60
2023/08/19 01:50:29;;;;;;;15.85;10.73;;;;;;;23.64;100.00;100259.75;8401411;28;20040;-59
2023/08/19 01:54:30;;;;;;;18.75;11.82;;;;;;;23.67;100.00;100263.94;8420411;28;20060;-58
2023/08/19 01:58:30;;;;;;;16.30;11.65;;;;;;;23.61;100.00;100267.63;8419511;28;20039;-58
2023/08/19 02:02:31;;;;;;;16.15;11.07;;;;;;;23.56;100.00;100267.47;8418795;28;20051;-58
2023/08/19 02:06:33;;;;;;;12.40;10.45;;;;;;;23.48;100.00;100267.81;8419086;28;20151;-58
2023/08/19 02:10:33;;;;;;;17.80;10.73;;;;;;;23.37;100.00;100263.88;8418922;28;20074;-58
2023/08/19 02:14:34;;;;;;;17.65;10.32;;;;;;;23.32;100.00;100265.66;8415978;28;20398;-58
2023/08/19 02:18:35;;;;;;;14.15;11.55;;;;;;;23.29;100.00;100258.66;8418758;28;20059;-58
2023/08/19 02:22:38;;;;;;;18.70;11.77;;;;;;;23.34;100.00;100257.97;8418201;28;20135;-58
2023/08/19 02:26:38;;;;;;;16.47;10.27;;;;;;;23.38;100.00;100259.19;8418854;28;20486;-59
2023/08/19 02:30:40;;;;;;;14.13;11.07;;;;;;;23.35;100.00;100260.50;8416681;28;20563;-59
2023/08/19 02:34:40;;;;;;;20.55;11.90;;;;;;;23.40;100.00;100257.06;8418658;28;20060;-58
2023/08/19 02:38:41;;;;;;;20.48;12.10;;;;;;;23.34;100.00;100252.44;8418308;28;20036;-59
2023/08/19 02:42:41;;;;;;;15.18;11.05;;;;;;;23.35;100.00;100240.34;8418611;28;20044;-58
2023/08/19 02:46:42;;;;;;;15.82;10.95;;;;;;;23.35;100.00;100234.81;8418699;28;20119;-60
2023/08/19 02:50:43;;;;;;;17.05;10.85;;;;;;;23.35;100.00;100227.38;8416112;28;20040;-60
2023/08/19 02:54:43;;;;;;;16.33;11.07;;;;;;;23.35;100.00;100226.53;8417479;28;20071;-59
2023/08/19 02:58:43;;;;;;;15.63;10.07;;;;;;;23.37;100.00;100229.91;8421022;28;20032;-58
2023/08/19 03:02:47;;;;;;;13.90;10.50;;;;;;;23.31;100.00;100236.34;8406187;28;20131;-59
2023/08/19 03:06:47;;;;;;;16.17;9.40;;;;;;;23.28;100.00;100234.91;8429007;28;20028;-59
2023/08/19 03:10:48;;;;;;;14.38;9.57;;;;;;;23.33;100.00;100239.75;8410423;28;20032;-59
2023/08/19 03:14:48;;;;;;;13.27;10.15;;;;;;;23.35;100.00;100237.56;8428948;28;20047;-59
2023/08/19 03:18:49;;;;;;;15.68;10.27;;;;;;;23.32;100.00;100232.53;8428012;28;20043;-59
2023/08/19 03:22:49;;;;;;;14.93;9.60;;;;;;;23.38;100.00;100226.06;8410700;28;20055;-59
2023/08/19 03:26:50;;;;;;;18.02;9.85;;;;;;;23.45;100.00;100221.34;8428817;28;20025;-59
2023/08/19 03:30:51;;;;;;;15.68;9.48;;;;;;;23.45;100.00;100221.34;8423198;28;20551;-58
2023/08/19 03:34:51;;;;;;;13.52;8.65;;;;;;;23.43;100.00;100223.47;8428061;28;20040;-59
2023/08/19 03:38:52;;;;;;;20.90;9.15;;;;;;;23.42;100.00;100221.81;8427355;28;20089;-59
2023/08/19 03:42:52;;;;;;;14.65;9.25;;;;;;;23.41;100.00;100225.63;8427712;28;20042;-59
2023/08/19 03:46:53;;;;;;;12.95;7.75;;;;;;;23.46;100.00;100228.53;8404496;28;20082;-59
2023/08/19 03:50:55;;;;;;;14.50;8.63;;;;;;;23.54;100.00;100231.00;8427607;28;20047;-60
2023/08/19 03:54:55;;;;;;;11.32;7.57;;;;;;;23.46;100.00;100234.06;8427432;28;20040;-60
2023/08/19 03:58:56;;;;;;;16.55;8.15;;;;;;;23.38;100.00;100237.13;8427413;28;20046;-59
2023/08/19 04:02:56;;;;;;;16.90;8.13;;;;;;;23.33;100.00;100234.22;8427110;28;20417;-59
2023/08/19 04:06:57;;;;;;;11.15;7.28;;;;;;;23.27;100.00;100236.00;8426820;28;20139;-59
2023/08/19 04:11:05;;;;;;;16.02;8.60;;;;;;;23.18;100.00;100237.34;8426378;28;20098;-61
2023/08/19 04:15:08;;;;;;;15.90;8.57;;;;;;;23.12;100.00;100232.72;8423411;28;20043;-61
2023/08/19 04:19:09;;;;;;;18.00;9.38;;;;;;;22.98;100.00;100242.19;8425941;28;20540;-61
2023/08/19 04:23:09;;;;;;;12.43;8.63;;;;;;;22.98;100.00;100236.69;8408887;28;20238;-61
2023/08/19 04:27:10;;;;;;;13.15;8.70;;;;;;;22.94;100.00;100240.97;8426609;28;20089;-61
2023/08/19 04:31:12;;;;;;;14.30;9.18;;;;;;;22.92;100.00;100243.09;8425667;28;20043;-61
2023/08/19 04:35:28;;;;;;;11.90;8.48;;;;;;;22.92;100.00;100243.97;8423014;28;20039;-61
2023/08/19 04:39:29;;;;;;;13.15;9.05;;;;;;;22.95;100.00;100246.25;8425690;28;20055;-61
2023/08/19 04:43:33;;;;;;;13.73;8.20;;;;;;;22.96;100.00;100234.16;8420447;28;20044;-61
2023/08/19 04:47:33;;;;;;;17.38;7.18;;;;;;;22.99;100.00;100239.22;8425672;28;20490;-61
2023/08/19 04:51:35;;;;;;;10.75;7.40;;;;;;;23.02;100.00;100227.72;8419295;28;20066;-60
2023/08/19 04:55:35;;;;;;;13.55;6.80;;;;;;;23.14;100.00;100236.94;8437929;28;20126;-61
2023/08/19 04:59:36;;;;;;;12.15;6.82;;;;;;;23.29;100.00;100246.81;8424638;28;20117;-61
2023/08/19 05:03:36;;;;;;;9.50;6.30;;;;;;;23.43;100.00;100246.41;8425086;28;20451;-61
2023/08/19 05:07:38;;;;;;;11.10;7.10;;;;;;;23.50;100.00;100240.78;8424823;28;20040;-60
2023/08/19 05:11:38;;;;;;;12.35;7.22;;;;;;;23.64;100.00;100253.38;8425106;28;20032;-61
2023/08/19 05:15:41;;;;;;;10.70;6.93;;;;;;;23.81;100.00;100259.94;8422511;28;20039;-61
2023/08/19 05:19:42;;;;;;;10.82;6.28;;;;;;;23.93;100.00;100255.31;8424496;28;20088;-61
2023/08/19 05:23:42;;;;;;;14.88;7.00;;;;;;;24.11;100.00;100255.31;8417891;28;20064;-61
2023/08/19 05:27:43;;;;;;;8.27;5.82;;;;;;;24.12;100.00;100257.81;8406432;28;20089;-61
2023/08/19 05:31:43;;;;;;;7.90;5.47;;;;;;;24.29;100.00;100258.88;8423814;28;20059;-61
2023/08/19 05:35:44;;;;;;;9.65;5.75;;;;;;;24.25;100.00;100278.91;8421757;28;20126;-61
2023/08/19 05:39:44;;;;;;;11.02;6.22;;;;;;;24.29;100.00;100266.31;8422044;28;20044;-61
2023/08/19 05:43:45;;;;;;;17.17;6.85;;;;;;;24.33;100.00;100253.69;8422921;28;20054;-61
2023/08/19 05:47:45;;;;;;;7.97;5.95;;;;;;;24.41;100.00;100273.56;8419675;28;20413;-61
2023/08/19 05:51:45;;;;;;;10.73;5.63;;;;;;;24.48;100.00;100273.44;8423809;28;20036;-61
2023/08/19 05:55:47;;;;;;;9.98;4.95;;;;;;;24.58;100.00;100282.03;8423512;28;20058;-61
2023/08/19 05:59:48;;;;;;;6.05;4.22;;;;;;;24.61;100.00;100278.78;8423161;28;20047;-61
2023/08/19 06:03:48;;;;;;;10.02;5.13;;;;;;;24.66;100.00;100276.16;8423330;28;20050;-61
2023/08/19 06:07:49;;;;;;;7.15;5.45;;;;;;;24.64;100.00;100275.53;8422906;28;20520;-60
2023/08/19 06:11:52;;;;;;;8.30;5.03;;;;;;;24.68;100.00;100285.06;8423675;28;20122;-61
2023/08/19 06:15:52;;;;;;;5.57;5.03;;;;;;;24.70;100.00;100277.41;8423319;28;20047;-61
2023/08/19 06:19:53;;;;;;;9.40;5.72;;;;;;;24.82;100.00;100275.47;8422540;28;20043;-61
2023/08/19 06:23:53;;;;;;;8.52;5.55;;;;;;;24.99;100.00;100280.06;8419511;28;20066;-61
2023/08/19 06:27:53;;;;;;;10.20;4.97;;;;;;;25.09;100.00;100284.16;8422428;28;20432;-61
2023/08/19 06:31:54;;;;;;;4.95;4.20;;;;;;;25.27;99.20;100290.41;8412566;28;20036;-60
2023/08/19 06:35:57;;;;;;;7.38;5.00;;;;;;;25.37;97.07;100296.19;8416961;28;20042;-61
2023/08/19 06:40:03;;;;;;;8.85;4.88;;;;;;;25.56;97.31;100300.53;8414834;28;20111;-61
2023/08/19 06:44:07;;;;;;;7.70;3.70;;;;;;;25.69;95.67;100300.25;8399912;28;20032;-60
2023/08/19 06:48:08;;;;;;;5.70;4.20;;;;;;;25.85;95.04;100310.56;8399843;28;20085;-60
2023/08/19 06:52:09;;;;;;;5.78;3.90;;;;;;;26.05;93.21;100316.59;8412449;28;20285;-58
2023/08/19 06:56:23;;;;;;;6.65;3.97;;;;;;;26.22;92.57;100311.94;8413028;28;20402;-58
2023/08/19 07:00:24;;;;;;;;;;;;;;;26.39;92.63;100310.06;8421160;28;20044;-58
2023/08/19 07:04:27;;;;;;;12.90;4.07;;;;;;;26.54;90.57;100320.59;8421196;28;19969;-58
2023/08/19 07:08:30;;;;;;;9.20;3.90;;;;;;;26.83;89.20;100320.31;8420593;28;20040;-58
2023/08/19 07:12:31;;;;;;;11.70;3.40;;;;;;;27.05;88.05;100317.66;8420994;28;20270;-58
2023/08/19 07:16:33;;;;;;;6.93;3.90;;;;;;;27.04;87.94;100326.25;8420728;28;20350;-59
2023/08/19 07:20:34;;;;;;;8.55;3.83;;;;;;;26.95;89.13;100328.56;8402146;28;20069;-57
2023/08/19 07:24:35;;;;;;;5.57;4.05;;;;;;;26.96;89.84;100335.81;8420823;28;20494;-57
2023/08/19 07:28:36;;;;;;;9.90;4.13;;;;;;;27.01;89.74;100326.75;8402629;28;20040;-58
2023/08/19 07:32:36;;;;;;;10.43;4.97;;;;;;;27.16;89.56;100333.38;8420152;28;20530;-59
2023/08/19 07:36:37;;;;;;;5.35;4.05;;;;;;;27.18;88.99;100333.13;8412763;28;20043;-59
2023/08/19 07:40:37;;;;;;;8.60;3.90;;;;;;;27.34;88.76;100321.19;8418593;28;20093;-58
2023/08/19 07:44:38;;;;;;;6.60;3.85;;;;;;;27.41;88.51;100330.19;8419606;28;20036;-58
2023/08/19 07:48:38;;;;;;;11.18;3.90;;;;;;;27.48;88.26;100333.63;8426637;28;20036;-59
2023/08/19 07:52:39;;;;;;;8.48;3.92;;;;;;;27.45;89.56;100334.13;8427057;28;20044;-59
2023/08/19 07:56:39;;;;;;;5.38;4.47;;;;;;;27.41;89.28;100332.97;8427155;28;20067;-59
2023/08/19 08:00:40;;;;;;;6.65;3.75;;;;;;;27.49;88.95;100336.16;8425971;28;20420;-62
2023/08/19 08:04:40;;;;;;;8.80;4.28;;;;;;;27.60;90.52;100332.41;8395344;28;20036;-62
2023/08/19 08:08:41;;;;;;;5.75;3.70;;;;;;;27.73;86.72;100322.88;8423471;28;20501;-63
2023/08/19 08:12:41;;;;;;;7.22;3.75;;;;;;;27.86;87.03;100326.16;8422038;28;20079;-62
2023/08/19 08:16:42;;;;;;;8.70;3.90;;;;;;;28.04;86.55;100338.88;8401987;28;20047;-62
2023/08/19 08:20:44;;;;;;;6.15;3.72;;;;;;;28.13;86.88;100348.47;8417956;28;20067;-62
2023/08/19 08:24:44;;;;;;;4.63;3.40;;;;;;;28.27;86.12;100366.44;8414375;28;20040;-62
2023/08/19 08:28:45;;;;;;;8.15;4.40;;;;;;;28.41;83.32;100373.28;8412304;28;20113;-63
2023/08/19 08:32:46;;;;;;;6.43;4.57;;;;;;;28.47;83.50;100367.56;8405564;28;20032;-62
2023/08/19 08:36:47;;;;;;;5.88;3.45;;;;;;;28.51;81.76;100374.28;8405920;28;20112;-62
2023/08/19 08:40:47;;;;;;;6.93;3.78;;;;;;;28.75;78.49;100385.94;8399733;28;20075;-62
2023/08/19 08:44:50;;;;;;;5.38;2.78;;;;;;;28.86;78.06;100392.44;8420244;28;20127;-63
2023/08/19 08:48:51;;;;;;;9.82;3.47;;;;;;;28.86;79.43;100384.94;8388668;28;20500;-63
2023/08/19 08:52:53;;;;;;;5.95;3.33;;;;;;;29.18;76.38;100385.00;8422862;28;20480;-63
2023/08/19 08:56:54;;;;;;;10.18;3.35;;;;;;;29.24;75.39;100389.53;8421869;28;20046;-63
2023/08/19 09:00:55;;;;;;;9.35;3.85;;;;;;;29.46;76.67;100405.00;8421877;28;20040;-63
2023/08/19 09:04:56;;;;;;;7.30;3.33;;;;;;;30.07;75.92;100404.34;8421748;28;20089;-62
2023/08/19 09:09:08;;;;;;;8.13;3.20;;;;;;;30.00;72.82;100400.97;8421843;28;20072;-63
2023/08/19 09:13:15;;;;;;;3.90;3.10;;;;;;;29.98;75.76;100416.31;8421119;28;20464;-60
2023/08/19 09:17:15;;;;;;;3.35;2.78;;;;;;;30.19;74.95;100410.59;8416100;28;20101;-59
2023/08/19 09:21:16;;;;;;;9.20;3.10;;;;;;;30.57;73.77;100419.66;8417902;28;20505;-58
2023/08/19 09:25:16;;;;;;;6.63;3.35;;;;;;;30.58;73.89;100432.53;8403312;28;20501;-58
2023/08/19 09:29:19;;;;;;;6.50;3.35;;;;;;;30.66;72.80;100438.41;8422148;28;20042;-59
2023/08/19 09:33:20;;;;;;;8.38;3.38;;;;;;;30.72;72.72;100439.28;8422524;28;20044;-59
2023/08/19 09:37:23;;;;;;;7.03;3.60;;;;;;;31.13;72.48;100439.13;8421867;28;20589;-59
2023/08/19 09:41:29;;;;;;;9.17;4.07;;;;;;;31.81;69.87;100440.59;8423152;28;20416;-62
2023/08/19 09:45:30;;;;;;;9.63;4.00;;;;;;;32.09;68.97;100446.44;8417614;28;20306;-63
2023/08/19 09:49:35;;;;;;;12.27;3.60;;;;;;;34.09;64.18;100451.16;8420495;28;20051;-63
2023/08/19 09:53:37;;;;;;;6.55;3.75;;;;;;;33.81;62.64;100459.25;8407691;28;20043;-63
2023/08/19 09:57:37;;;;;;;15.32;4.28;;;;;;;34.20;61.10;100458.31;8417282;28;20066;-63
2023/08/19 10:01:38;;;;;;;4.32;3.58;;;;;;;33.41;62.53;100456.78;8422785;28;20241;-59
2023/08/19 10:05:40;;;;;;;8.02;3.58;;;;;;;33.12;63.30;100453.06;8421612;28;20131;-60
2023/08/19 10:09:40;;;;;;;8.55;3.83;;;;;;;33.87;62.50;100460.06;8412806;28;20040;-59
2023/08/19 10:13:44;;;;;;;7.38;3.22;;;;;;;34.51;60.11;100454.91;8421843;28;20119;-59
2023/08/19 10:17:48;;;;;;;;;;;;;;;34.99;62.38;100466.94;8404254;28;20043;-59
2023/08/19 10:21:50;;;;;;;6.30;4.00;;;;;;;34.35;62.23;100455.34;8417703;28;19923;-60
2023/08/19 10:25:51;;;;;;;5.78;3.50;;;;;;;34.04;63.30;100459.63;8418761;28;20060;-60
2023/08/19 10:29:59;;;;;;;12.25;4.18;;;;;;;33.11;63.06;100456.97;8418002;28;20040;-59
2023/08/19 10:34:10;;;;;;;8.57;3.92;;;;;;;32.43;64.89;100460.63;8402650;28;20054;-59
2023/08/19 10:38:12;;;;;;;7.15;3.97;;;;;;;32.22;66.14;100470.19;8416544;28;20130;-59
2023/08/19 10:42:13;;;;;;;8.80;4.75;;;;;;;32.16;67.94;100471.31;8418008;28;20048;-60
2023/08/19 10:46:18;;;;;;;7.05;4.47;;;;;;;32.18;67.07;100463.50;8420137;28;20043;-60
2023/08/19 10:50:19;;;;;;;12.05;4.78;;;;;;;32.63;64.92;100471.78;8421180;28;20037;-60
2023/08/19 10:54:26;;;;;;;7.88;4.72;;;;;;;33.68;63.83;100485.19;8420802;28;20044;-59
2023/08/19 10:58:27;;;;;;;12.40;4.43;;;;;;;34.56;62.85;100501.75;8421336;28;20058;-60
2023/08/19 11:02:28;;;;;;;11.02;4.95;;;;;;;35.71;61.36;100508.63;8421016;28;20064;-60
2023/08/19 11:06:30;;;;;;;8.05;4.75;;;;;;;35.02;59.48;100516.94;8420806;28;20309;-60
2023/08/19 11:10:32;;;;;;;10.48;4.80;;;;;;;34.29;63.17;100516.34;8420255;28;20519;-60
2023/08/19 11:14:33;;;;;;;9.35;5.25;;;;;;;33.11;67.23;100515.00;8414390;28;20047;-60
2023/08/19 11:18:38;;;;;;;10.20;5.22;;;;;;;32.29;67.91;100515.50;8419736;28;20519;-59
2023/08/19 11:22:43;;;;;;;18.52;5.70;;;;;;;32.04;70.61;100529.53;8422686;28;20062;-60
2023/08/19 11:26:46;;;;;;;7.47;5.63;;;;;;;32.06;70.27;100530.09;8425300;28;20032;-60
2023/08/19 11:30:46;;;;;;;8.30;5.78;;;;;;;31.85;69.40;100531.22;8424793;28;20086;-60
2023/08/19 11:34:47;;;;;;;6.20;4.45;;;;;;;31.91;70.56;100558.94;8426369;28;20040;-59
2023/08/19 11:38:47;;;;;;;9.27;5.40;;;;;;;32.33;69.13;100564.22;8408262;28;20436;-60
2023/08/19 11:42:48;;;;;;;10.10;6.25;;;;;;;32.63;70.47;100572.59;8422837;28;20123;-59
2023/08/19 11:46:53;;;;;;;13.68;5.82;;;;;;;32.51;71.93;100586.06;8425082;28;20172;-61
2023/08/19 11:50:53;;;;;;;8.90;5.53;;;;;;;32.67;71.96;100595.25;8426896;28;20142;-59
2023/08/19 11:55:03;;;;;;;11.05;5.90;;;;;;;32.72;69.29;100600.88;8408049;28;20036;-59
2023/08/19 11:59:03;;;;;;;8.75;5.18;;;;;;;33.32;68.64;100615.53;8430909;28;20088;-59
2023/08/19 12:03:04;;;;;;;8.68;5.47;;;;;;;32.95;70.48;100626.31;8422123;28;20077;-60
2023/08/19 12:07:10;;;;;;;10.48;6.35;;;;;;;32.70;70.40;100645.97;8425254;28;20060;-59
2023/08/19 12:11:12;;;;;;;9.27;6.00;;;;;;;33.09;70.23;100666.66;8421669;28;20070;-60
2023/08/19 12:15:12;;;;;;;8.20;6.18;;;;;;;32.24;72.32;100673.09;8425141;28;20536;-59
2023/08/19 12:19:13;;;;;;;7.97;6.45;;;;;;;31.80;76.80;100682.22;8425201;28;20057;-59
2023/08/19 12:23:13;;;;;;;13.98;6.85;;;;;;;31.67;78.25;100688.34;8424840;28;20353;-60
2023/08/19 12:27:14;;;;;;;12.00;7.82;;;;;;;31.30;78.68;100696.03;8425324;28;20611;-59
2023/08/19 12:31:14;;;;;;;17.67;7.85;;;;;;;30.70;82.35;100706.78;8421010;28;20040;-60
2023/08/19 12:35:15;;;;;;;14.05;7.75;;;;;;;30.50;82.70;100712.16;8422349;28;20510;-59
2023/08/19 12:39:16;;;;;;;12.95;7.68;;;;;;;30.33;83.26;100724.31;8406325;28;20040;-60
2023/08/19 12:43:17;;;;;;;11.45;7.70;;;;;;;30.28;83.69;100738.22;8424702;28;20044;-59
2023/08/19 12:47:17;;;;;;;14.05;7.82;;;;;;;30.15;84.46;100740.53;8425065;28;20101;-59
2023/08/19 12:51:19;;;;;;;11.50;7.82;;;;;;;30.16;82.63;100751.44;8425609;28;20040;-58
2023/08/19 12:55:22;;;;;;;12.52;7.47;;;;;;;30.00;81.18;100752.38;8406546;28;20044;-59
2023/08/19 12:59:23;;;;;;;9.05;7.20;;;;;;;29.64;82.28;100775.34;8424969;28;20189;-58
2023/08/19 13:03:23;;;;;;;8.35;7.10;;;;;;;29.41;82.08;100786.72;8424179;28;20047;-59
2023/08/19 13:07:24;;;;;;;10.52;7.13;;;;;;;29.24;82.11;100810.16;8421925;28;20517;-58
2023/08/19 13:11:25;;;;;;;15.07;7.25;;;;;;;28.87;86.11;100815.38;8422775;28;20043;-58
2023/08/19 13:15:25;;;;;;;10.82;8.38;;;;;;;28.47;88.96;100809.94;8418244;28;20075;-60
2023/08/19 13:19:26;;;;;;;9.50;7.90;;;;;;;27.94;94.65;100819.69;8419881;28;20047;-59
2023/08/19 13:23:26;;;;;;;9.30;8.10;;;;;;;27.67;100.00;100835.19;8417100;28;20095;-58
2023/08/19 13:27:28;;;;;;;11.55;7.95;;;;;;;27.57;100.00;100832.19;8424078;28;20040;-58
2023/08/19 13:31:28;;;;;;;11.30;7.05;;;;;;;27.47;100.00;100820.84;8402595;28;20032;-58
2023/08/19 13:35:34;;;;;;;8.15;7.25;;;;;;;27.55;98.09;100812.13;8419041;28;20064;-59
2023/08/19 13:39:35;;;;;;;12.07;7.85;;;;;;;27.44;100.00;100815.78;8417518;28;20384;-58
2023/08/19 13:43:37;;;;;;;11.70;7.10;;;;;;;27.26;100.00;100818.69;8422781;28;20043;-58
2023/08/19 13:47:37;;;;;;;9.30;7.03;;;;;;;27.26;100.00;100818.69;8422159;28;20043;-59
2023/08/19 13:51:38;;;;;;;7.22;6.53;;;;;;;27.24;95.69;100815.25;8399951;28;20126;-63
2023/08/19 13:55:41;;;;;;;8.95;5.07;;;;;;;27.19;93.58;100813.22;8401435;28;20047;-63
2023/08/19 13:59:42;;;;;;;5.93;4.75;;;;;;;27.05;95.28;100825.66;8418718;28;20044;-63
2023/08/19 14:03:42;;;;;;;7.47;4.47;;;;;;;26.88;95.29;100821.03;8423168;28;20505;-63
2023/08/19 14:07:43;;;;;;;5.85;4.22;;;;;;;26.54;92.25;100801.28;8422753;28;20274;-62
2023/08/19 14:11:43;;;;;;;7.32;4.70;;;;;;;26.10;97.96;100776.78;8422913;28;20497;-61
2023/08/19 14:15:44;;;;;;;8.95;4.40;;;;;;;25.90;99.96;100775.34;8422886;28;20063;-62
2023/08/19 14:19:45;;;;;;;7.05;4.63;;;;;;;25.68;100.00;100804.63;8422537;28;20083;-62
2023/08/19 14:23:45;;;;;;;7.82;5.05;;;;;;;25.83;100.00;100772.66;8422067;28;20560;-62
2023/08/19 14:27:46;;;;;;;9.20;5.90;;;;;;;25.82;100.00;100737.72;8422721;28;20039;-62
2023/08/19 14:31:46;;;;;;;7.40;6.30;;;;;;;25.80;100.00;100775.06;8422500;28;20097;-62
2023/08/19 14:35:47;;;;;;;9.17;5.67;;;;;;;25.80;100.00;100781.44;8420731;28;20162;-62
2023/08/19 14:39:48;;;;;;;7.13;5.93;;;;;;;25.92;100.00;100782.34;8419846;28;20369;-62
2023/08/19 14:43:48;;;;;;;6.88;5.53;;;;;;;26.32;100.00;100780.72;8422720;28;20040;-60
2023/08/19 14:47:48;;;;;;;7.00;4.90;;;;;;;26.61;100.00;100782.59;8422066;28;20055;-60
2023/08/19 14:51:49;;;;;;;11.13;5.43;;;;;;;26.76;100.00;100760.84;8420588;28;20040;-59
2023/08/19 14:55:49;;;;;;;9.07;4.57;;;;;;;26.95;100.00;100775.44;8427371;28;20036;-59
2023/08/19 14:59:50;;;;;;;7.63;4.75;;;;;;;27.31;96.60;100777.13;8424188;28;20047;-59
2023/08/19 15:03:50;;;;;;;4.22;3.83;;;;;;;27.51;92.18;100799.81;8410666;28;20130;-59
2023/08/19 15:07:51;;;;;;;7.68;4.15;;;;;;;27.81;91.74;100797.72;8428200;28;20070;-58
2023/08/19 15:11:51;;;;;;;5.85;3.88;;;;;;;27.62;91.64;100790.59;8424191;28;20086;-58
2023/08/19 15:15:52;;;;;;;4.68;3.65;;;;;;;27.61;88.99;100803.66;8428522;28;20044;-58
2023/08/19 15:19:53;;;;;;;7.93;4.00;;;;;;;27.66;87.76;100814.06;8407301;28;20068;-58
2023/08/19 15:23:53;;;;;;;4.00;3.42;;;;;;;27.72;86.65;100807.53;8425253;28;20047;-58
2023/08/19 15:27:54;;;;;;;4.05;3.28;;;;;;;27.76;87.46;100815.13;8427453;28;20516;-59
2023/08/19 15:31:54;;;;;;;5.57;3.22;;;;;;;27.91;84.89;100822.97;8427747;28;20039;-59
2023/08/19 15:35:55;;;;;;;3.65;3.35;;;;;;;27.83;85.45;100818.59;8423640;28;20510;-59
2023/08/19 15:39:55;;;;;;;7.47;4.10;;;;;;;27.79;83.30;100825.75;8427502;28;20039;-59
2023/08/19 15:43:56;;;;;;;3.65;3.08;;;;;;;27.72;84.47;100821.41;8427205;28;20127;-58
2023/08/19 15:47:57;;;;;;;4.18;3.20;;;;;;;27.91;87.07;100817.41;8426203;28;20059;-59
2023/08/19 15:51:57;;;;;;;4.55;3.40;;;;;;;28.03;83.97;100826.56;8426892;28;20044;-58
2023/08/19 15:55:57;;;;;;;3.88;3.47;;;;;;;27.93;85.28;100827.19;8403264;28;20040;-59
2023/08/19 15:59:58;;;;;;;6.53;3.80;;;;;;;27.78;84.24;100817.66;8401727;28;20071;-58
2023/08/19 16:03:58;;;;;;;4.22;3.83;;;;;;;27.74;86.84;100816.44;8423873;28;20127;-58
2023/08/19 16:08:00;;;;;;;9.63;4.13;;;;;;;27.83;83.34;100814.97;8407146;28;20047;-58
2023/08/19 16:12:02;;;;;;;6.30;3.83;;;;;;;27.95;84.74;100825.00;8426745;28;20039;-62
2023/08/19 16:16:03;;;;;;;4.15;3.50;;;;;;;27.82;85.61;100821.63;8416890;28;20310;-62
2023/08/19 16:20:04;;;;;;;7.25;4.10;;;;;;;27.89;84.24;100826.00;8425580;28;20071;-63
2023/08/19 16:24:04;;;;;;;5.28;3.47;;;;;;;27.96;84.17;100821.13;8416203;28;20096;-62
2023/08/19 16:28:06;;;;;;;6.45;4.10;;;;;;;27.87;83.60;100827.34;8425036;28;20493;-63
2023/08/19 16:32:06;;;;;;;5.53;3.63;;;;;;;27.92;82.97;100821.88;8394793;28;20097;-58
2023/08/19 16:36:07;;;;;;;5.20;3.72;;;;;;;27.92;82.49;100819.09;8413734;28;20032;-58
2023/08/19 16:40:08;;;;;;;3.92;3.38;;;;;;;28.05;80.30;100830.75;8421012;28;20051;-58
2023/08/19 16:44:11;;;;;;;7.88;4.13;;;;;;;27.90;82.84;100810.16;8424057;28;20061;-61
2023/08/19 16:48:12;;;;;;;5.97;4.15;;;;;;;27.96;82.56;100817.53;8406932;28;20043;-61
2023/08/19 16:52:12;;;;;;;4.47;3.25;;;;;;;27.95;79.88;100813.03;8423334;28;20524;-61
2023/08/19 16:56:13;;;;;;;5.70;3.10;;;;;;;27.89;81.11;100814.00;8423773;28;20039;-61
2023/08/19 17:00:14;;;;;;;4.70;3.28;;;;;;;27.87;81.21;100821.78;8405415;28;20040;-60
2023/08/19 17:04:15;;;;;;;5.65;3.17;;;;;;;27.85;80.94;100818.34;8423221;28;20047;-60
2023/08/19 17:08:15;;;;;;;5.05;3.45;;;;;;;27.92;80.84;100830.19;8418232;28;20497;-61
2023/08/19 17:12:16;;;;;;;4.22;3.50;;;;;;;28.02;81.25;100830.41;8423784;28;20096;-61
2023/08/19 17:16:16;;;;;;;4.32;2.80;;;;;;;27.95;82.39;100826.94;8416178;28;20060;-60
2023/08/19 17:20:16;;;;;;;9.80;3.72;;;;;;;27.69;87.59;100824.69;8423067;28;20051;-60
2023/08/19 17:24:17;;;;;;;7.25;3.60;;;;;;;27.46;89.71;100822.78;8424652;28;20107;-58
2023/08/19 17:28:17;;;;;;;7.22;3.58;;;;;;;27.31;92.26;100821.56;8424081;28;20393;-60
2023/08/19 17:32:18;;;;;;;16.40;3.88;;;;;;;27.23;93.41;100830.25;8424048;28;20044;-59
2023/08/19 17:36:19;;;;;;;7.15;3.35;;;;;;;27.08;99.09;100832.66;8419171;28;20047;-58
2023/08/19 17:40:20;;;;;;;6.60;3.78;;;;;;;27.00;97.30;100836.63;8423750;28;20071;-58
2023/08/19 17:44:20;;;;;;;6.13;3.78;;;;;;;26.99;96.60;100847.97;8424130;28;20059;-59
2023/08/19 17:48:21;;;;;;;7.05;4.28;;;;;;;27.17;92.37;100848.69;8423194;28;20036;-57
2023/08/19 17:52:23;;;;;;;6.82;3.60;;;;;;;27.27;91.09;100848.16;8424383;28;20532;-58
2023/08/19 17:56:23;;;;;;;4.95;3.47;;;;;;;27.39;90.85;100851.78;8418913;28;20049;-58
2023/08/19 18:00:24;;;;;;;4.28;3.58;;;;;;;27.15;95.99;100852.81;8422916;28;20106;-57
2023/08/19 18:04:24;;;;;;;8.63;3.75;;;;;;;26.98;97.67;100840.75;8423457;28;20126;-57
2023/08/19 18:08:25;;;;;;;7.55;3.92;;;;;;;26.74;99.79;100850.94;8417627;28;20075;-59
2023/08/19 18:12:25;;;;;;;5.32;3.67;;;;;;;26.62;99.17;100848.13;8416228;28;20468;-61
2023/08/19 18:16:26;;;;;;;5.30;3.45;;;;;;;26.65;94.08;100858.75;8423246;28;20047;-61
2023/08/19 18:20:27;;;;;;;5.82;3.65;;;;;;;26.58;98.48;100849.66;8423395;28;20520;-61
2023/08/19 18:24:29;;;;;;;4.55;3.10;;;;;;;26.42;100.00;100858.66;8419149;28;20036;-60
2023/08/19 18:28:30;;;;;;;6.05;3.65;;;;;;;26.08;100.00;100853.81;8422040;28;20428;-60